sensor_id;sensor_type;location;lat;lon;timestamp;pressure;altitude;pressure_sealevel;temperature;humidity
10518;BME280;5307;42.548;22.968;2023-09-12T00:00:13;94029.38;;;13.38;72.92
10518;BME280;5307;42.548;22.968;2023-09-12T00:02:40;94028.16;;;13.39;72.67
10518;BME280;5307;42.548;22.968;2023-09-12T00:05:07;94032.59;;;13.18;73.08
10518;BME280;5307;42.548;22.968;2023-09-12T00:07:34;94030.75;;;13.06;73.61
10518;BME280;5307;42.548;22.968;2023-09-12T00:10:01;94030.31;;;13.26;73.11
10518;BME280;5307;42.548;22.968;2023-09-12T00:12:29;94032.31;;;13.25;74.11
10518;BME280;5307;42.548;22.968;2023-09-12T00:14:56;94034.25;;;13.06;74.31
10518;BME280;5307;42.548;22.968;2023-09-12T00:17:23;94036.53;;;13.08;74.76
10518;BME280;5307;42.548;22.968;2023-09-12T00:19:52;94032.78;;;12.96;75.11
10518;BME280;5307;42.548;22.968;2023-09-12T00:22:20;94032.16;;;13.01;75.15
10518;BME280;5307;42.548;22.968;2023-09-12T00:24:46;94039.75;;;12.88;75.69
10518;BME280;5307;42.548;22.968;2023-09-12T00:27:13;94039.47;;;12.95;75.80
10518;BME280;5307;42.548;22.968;2023-09-12T00:29:43;94040.22;;;13.14;76.07
10518;BME280;5307;42.548;22.968;2023-09-12T00:32:09;94036.09;;;13.00;76.47
10518;BME280;5307;42.548;22.968;2023-09-12T00:34:36;94047.38;;;12.93;76.16
10518;BME280;5307;42.548;22.968;2023-09-12T00:37:04;94049.19;;;13.15;75.20
10518;BME280;5307;42.548;22.968;2023-09-12T00:39:30;94044.31;;;12.91;76.08
10518;BME280;5307;42.548;22.968;2023-09-12T00:41:57;94051.66;;;12.85;76.67
10518;BME280;5307;42.548;22.968;2023-09-12T00:44:24;94047.22;;;12.78;76.77
10518;BME280;5307;42.548;22.968;2023-09-12T00:46:55;94044.63;;;12.93;75.68
10518;BME280;5307;42.548;22.968;2023-09-12T00:49:23;94057.13;;;12.76;76.65
10518;BME280;5307;42.548;22.968;2023-09-12T00:51:51;94051.94;;;12.69;76.87
10518;BME280;5307;42.548;22.968;2023-09-12T00:54:18;94058.66;;;12.68;76.83
10518;BME280;5307;42.548;22.968;2023-09-12T00:56:45;94052.41;;;12.67;77.17
10518;BME280;5307;42.548;22.968;2023-09-12T00:59:13;94052.84;;;12.75;77.04
10518;BME280;5307;42.548;22.968;2023-09-12T01:01:44;94061.06;;;12.57;77.52
10518;BME280;5307;42.548;22.968;2023-09-12T01:04:13;94044.16;;;12.40;77.94
10518;BME280;5307;42.548;22.968;2023-09-12T01:06:40;94053.59;;;12.57;77.85
10518;BME280;5307;42.548;22.968;2023-09-12T01:09:07;94050.84;;;12.48;78.05
10518;BME280;5307;42.548;22.968;2023-09-12T01:21:46;94061.81;;;12.48;78.08
10518;BME280;5307;42.548;22.968;2023-09-12T01:24:52;94059.97;;;12.45;77.52
10518;BME280;5307;42.548;22.968;2023-09-12T01:27:28;94065.09;;;12.15;79.47
10518;BME280;5307;42.548;22.968;2023-09-12T01:29:58;94061.75;;;12.21;79.47
10518;BME280;5307;42.548;22.968;2023-09-12T01:32:27;94058.88;;;12.33;79.03
10518;BME280;5307;42.548;22.968;2023-09-12T01:34:55;94056.91;;;12.34;79.12
10518;BME280;5307;42.548;22.968;2023-09-12T01:37:22;94059.75;;;12.21;79.10
10518;BME280;5307;42.548;22.968;2023-09-12T01:39:49;94056.44;;;12.26;79.48
10518;BME280;5307;42.548;22.968;2023-09-12T01:42:18;94067.22;;;12.11;80.18
10518;BME280;5307;42.548;22.968;2023-09-12T01:44:50;94072.94;;;12.04;80.61
10518;BME280;5307;42.548;22.968;2023-09-12T01:47:21;94070.09;;;12.17;79.69
10518;BME280;5307;42.548;22.968;2023-09-12T01:49:51;94073.75;;;12.14;80.31
10518;BME280;5307;42.548;22.968;2023-09-12T01:52:19;94079.88;;;12.27;79.92
10518;BME280;5307;42.548;22.968;2023-09-12T01:54:47;94073.75;;;12.23;79.27
10518;BME280;5307;42.548;22.968;2023-09-12T01:57:14;94073.00;;;12.23;78.40
10518;BME280;5307;42.548;22.968;2023-09-12T01:59:42;94076.91;;;12.03;79.29
10518;BME280;5307;42.548;22.968;2023-09-12T02:02:10;94074.44;;;11.96;79.83
10518;BME280;5307;42.548;22.968;2023-09-12T02:04:37;94070.44;;;12.28;79.24
10518;BME280;5307;42.548;22.968;2023-09-12T02:07:04;94077.00;;;11.91;79.34
10518;BME280;5307;42.548;22.968;2023-09-12T02:09:30;94071.34;;;12.25;79.17
10518;BME280;5307;42.548;22.968;2023-09-12T02:12:00;94073.38;;;11.94;79.57
10518;BME280;5307;42.548;22.968;2023-09-12T02:14:27;94073.44;;;12.12;78.95
10518;BME280;5307;42.548;22.968;2023-09-12T02:16:54;94068.84;;;11.69;79.54
10518;BME280;5307;42.548;22.968;2023-09-12T02:19:28;94066.66;;;11.64;80.47
10518;BME280;5307;42.548;22.968;2023-09-12T02:21:54;94077.34;;;12.02;79.83
10518;BME280;5307;42.548;22.968;2023-09-12T02:24:22;94071.16;;;12.19;79.23
10518;BME280;5307;42.548;22.968;2023-09-12T02:27:15;94075.19;;;11.87;79.61
10518;BME280;5307;42.548;22.968;2023-09-12T02:29:50;94076.25;;;11.68;80.89
10518;BME280;5307;42.548;22.968;2023-09-12T02:32:20;94073.09;;;11.70;80.96
10518;BME280;5307;42.548;22.968;2023-09-12T02:34:50;94077.34;;;12.02;80.16
10518;BME280;5307;42.548;22.968;2023-09-12T02:37:18;94074.78;;;11.76;80.63
10518;BME280;5307;42.548;22.968;2023-09-12T02:39:45;94076.75;;;11.98;80.47
10518;BME280;5307;42.548;22.968;2023-09-12T02:42:12;94075.44;;;11.80;80.73
10518;BME280;5307;42.548;22.968;2023-09-12T02:44:50;94073.03;;;11.60;81.26
10518;BME280;5307;42.548;22.968;2023-09-12T02:47:17;94077.47;;;11.67;81.66
10518;BME280;5307;42.548;22.968;2023-09-12T02:49:44;94084.16;;;11.66;81.32
10518;BME280;5307;42.548;22.968;2023-09-12T02:52:12;94076.84;;;11.63;81.53
10518;BME280;5307;42.548;22.968;2023-09-12T02:54:39;94081.34;;;11.79;81.75
10518;BME280;5307;42.548;22.968;2023-09-12T02:57:11;94084.13;;;11.57;81.75
10518;BME280;5307;42.548;22.968;2023-09-12T02:59:37;94080.44;;;11.51;82.24
10518;BME280;5307;42.548;22.968;2023-09-12T03:02:07;94083.84;;;11.64;82.07
10518;BME280;5307;42.548;22.968;2023-09-12T03:04:35;94085.28;;;11.47;82.18
10518;BME280;5307;42.548;22.968;2023-09-12T03:07:02;94084.34;;;11.41;83.52
10518;BME280;5307;42.548;22.968;2023-09-12T03:09:30;94092.25;;;11.48;83.09
10518;BME280;5307;42.548;22.968;2023-09-12T03:11:57;94086.47;;;11.46;82.77
10518;BME280;5307;42.548;22.968;2023-09-12T03:14:23;94092.34;;;11.57;82.78
10518;BME280;5307;42.548;22.968;2023-09-12T03:16:50;94082.47;;;11.38;83.33
10518;BME280;5307;42.548;22.968;2023-09-12T03:19:17;94093.09;;;11.36;83.08
10518;BME280;5307;42.548;22.968;2023-09-12T03:21:44;94086.72;;;11.39;83.22
10518;BME280;5307;42.548;22.968;2023-09-12T03:24:11;94087.91;;;11.28;83.46
10518;BME280;5307;42.548;22.968;2023-09-12T03:26:39;94088.34;;;11.27;83.73
10518;BME280;5307;42.548;22.968;2023-09-12T03:29:05;94088.34;;;11.27;83.84
10518;BME280;5307;42.548;22.968;2023-09-12T03:31:32;94092.34;;;11.35;84.15
10518;BME280;5307;42.548;22.968;2023-09-12T03:33:59;94097.75;;;11.48;84.38
10518;BME280;5307;42.548;22.968;2023-09-12T03:36:26;94093.66;;;11.52;83.68
10518;BME280;5307;42.548;22.968;2023-09-12T03:38:53;94104.66;;;11.40;84.26
10518;BME280;5307;42.548;22.968;2023-09-12T03:41:20;94102.69;;;11.62;84.06
10518;BME280;5307;42.548;22.968;2023-09-12T03:43:52;94111.00;;;11.27;84.77
10518;BME280;5307;42.548;22.968;2023-09-12T03:46:19;94104.16;;;11.10;85.14
10518;BME280;5307;42.548;22.968;2023-09-12T03:48:46;94105.38;;;11.09;85.65
10518;BME280;5307;42.548;22.968;2023-09-12T03:51:13;94100.16;;;11.24;85.46
10518;BME280;5307;42.548;22.968;2023-09-12T03:53:42;94106.63;;;11.39;84.58
10518;BME280;5307;42.548;22.968;2023-09-12T03:56:09;94108.13;;;11.31;84.58
10518;BME280;5307;42.548;22.968;2023-09-12T03:58:38;94108.81;;;11.00;85.52
10518;BME280;5307;42.548;22.968;2023-09-12T04:01:06;94109.81;;;10.94;85.99
10518;BME280;5307;42.548;22.968;2023-09-12T04:03:33;94109.56;;;11.01;85.97
10518;BME280;5307;42.548;22.968;2023-09-12T04:05:59;94110.19;;;11.05;85.23
10518;BME280;5307;42.548;22.968;2023-09-12T04:08:26;94111.50;;;11.13;85.42
10518;BME280;5307;42.548;22.968;2023-09-12T04:10:53;94113.28;;;10.94;85.62
10518;BME280;5307;42.548;22.968;2023-09-12T04:13:20;94123.16;;;10.92;85.48
10518;BME280;5307;42.548;22.968;2023-09-12T04:15:47;94119.59;;;11.04;85.12
10518;BME280;5307;42.548;22.968;2023-09-12T04:18:15;94114.53;;;11.15;84.95
10518;BME280;5307;42.548;22.968;2023-09-12T04:20:41;94116.69;;;10.98;85.39
10518;BME280;5307;42.548;22.968;2023-09-12T04:23:08;94123.81;;;11.18;84.15
10518;BME280;5307;42.548;22.968;2023-09-12T04:25:35;94122.75;;;11.15;84.88
10518;BME280;5307;42.548;22.968;2023-09-12T04:28:01;94115.97;;;10.85;85.17
10518;BME280;5307;42.548;22.968;2023-09-12T04:30:27;94122.56;;;10.97;85.60
10518;BME280;5307;42.548;22.968;2023-09-12T04:32:54;94128.28;;;10.90;85.80
10518;BME280;5307;42.548;22.968;2023-09-12T04:35:22;94125.06;;;11.04;85.33
10518;BME280;5307;42.548;22.968;2023-09-12T04:37:50;94126.84;;;10.98;85.29
10518;BME280;5307;42.548;22.968;2023-09-12T04:40:17;94124.53;;;10.96;85.79
10518;BME280;5307;42.548;22.968;2023-09-12T04:42:44;94130.41;;;11.08;85.13
10518;BME280;5307;42.548;22.968;2023-09-12T04:45:11;94131.94;;;11.09;84.59
10518;BME280;5307;42.548;22.968;2023-09-12T04:47:38;94123.50;;;11.16;84.65
10518;BME280;5307;42.548;22.968;2023-09-12T04:50:05;94122.75;;;11.15;84.79
10518;BME280;5307;42.548;22.968;2023-09-12T04:52:34;94130.69;;;11.22;84.38
10518;BME280;5307;42.548;22.968;2023-09-12T04:55:00;94125.34;;;11.41;84.33
10518;BME280;5307;42.548;22.968;2023-09-12T04:57:27;94128.97;;;11.38;84.65
10518;BME280;5307;42.548;22.968;2023-09-12T04:59:56;94125.53;;;11.46;84.47
10518;BME280;5307;42.548;22.968;2023-09-12T05:02:23;94128.13;;;11.50;84.67
10518;BME280;5307;42.548;22.968;2023-09-12T05:04:50;94130.25;;;11.46;84.54
10518;BME280;5307;42.548;22.968;2023-09-12T05:07:17;94137.47;;;11.40;85.28
10518;BME280;5307;42.548;22.968;2023-09-12T05:09:46;94136.41;;;11.59;85.25
10518;BME280;5307;42.548;22.968;2023-09-12T05:12:12;94138.69;;;11.60;84.40
10518;BME280;5307;42.548;22.968;2023-09-12T05:14:39;94137.47;;;11.62;83.93
10518;BME280;5307;42.548;22.968;2023-09-12T05:17:06;94131.75;;;11.69;83.00
10518;BME280;5307;42.548;22.968;2023-09-12T05:19:38;94136.06;;;12.10;82.44
10518;BME280;5307;42.548;22.968;2023-09-12T05:22:15;94140.91;;;11.75;82.13
10518;BME280;5307;42.548;22.968;2023-09-12T05:24:47;94135.63;;;11.80;82.99
10518;BME280;5307;42.548;22.968;2023-09-12T05:27:15;94136.50;;;11.99;82.19
10518;BME280;5307;42.548;22.968;2023-09-12T05:29:41;94143.41;;;12.13;81.99
10518;BME280;5307;42.548;22.968;2023-09-12T05:32:09;94135.94;;;12.54;80.70
10518;BME280;5307;42.548;22.968;2023-09-12T05:34:36;94137.16;;;12.62;79.07
10518;BME280;5307;42.548;22.968;2023-09-12T05:37:03;94129.00;;;12.89;77.51
10518;BME280;5307;42.548;22.968;2023-09-12T05:39:30;94135.25;;;13.08;76.58
10518;BME280;5307;42.548;22.968;2023-09-12T05:41:58;94130.28;;;13.25;74.96
10518;BME280;5307;42.548;22.968;2023-09-12T05:44:25;94136.25;;;13.93;73.32
10518;BME280;5307;42.548;22.968;2023-09-12T05:46:51;94133.59;;;14.17;72.97
10518;BME280;5307;42.548;22.968;2023-09-12T05:49:19;94135.97;;;14.33;71.37
10518;BME280;5307;42.548;22.968;2023-09-12T05:51:46;94127.94;;;14.87;69.97
10518;BME280;5307;42.548;22.968;2023-09-12T05:54:13;94131.22;;;15.00;70.17
10518;BME280;5307;42.548;22.968;2023-09-12T05:56:40;94129.97;;;15.25;68.62
10518;BME280;5307;42.548;22.968;2023-09-12T05:59:08;94130.25;;;15.65;66.31
10518;BME280;5307;42.548;22.968;2023-09-12T06:01:35;94130.84;;;15.84;66.08
10518;BME280;5307;42.548;22.968;2023-09-12T06:04:02;94136.13;;;15.73;65.57
10518;BME280;5307;42.548;22.968;2023-09-12T06:06:30;94137.66;;;15.59;65.98
10518;BME280;5307;42.548;22.968;2023-09-12T06:08:57;94139.38;;;16.01;64.35
10518;BME280;5307;42.548;22.968;2023-09-12T06:11:24;94137.03;;;15.40;64.23
10518;BME280;5307;42.548;22.968;2023-09-12T06:13:50;94133.09;;;15.86;64.52
10518;BME280;5307;42.548;22.968;2023-09-12T06:16:18;94138.47;;;16.69;61.45
10518;BME280;5307;42.548;22.968;2023-09-12T06:18:45;94135.78;;;15.80;63.55
10518;BME280;5307;42.548;22.968;2023-09-12T06:21:13;94138.28;;;16.43;62.36
10518;BME280;5307;42.548;22.968;2023-09-12T06:23:40;94137.38;;;15.72;63.67
10518;BME280;5307;42.548;22.968;2023-09-12T06:26:07;94145.84;;;15.98;63.52
10518;BME280;5307;42.548;22.968;2023-09-12T06:28:34;94134.03;;;16.27;62.24
10518;BME280;5307;42.548;22.968;2023-09-12T06:31:00;94135.84;;;16.15;62.40
10518;BME280;5307;42.548;22.968;2023-09-12T06:33:29;94137.66;;;16.33;62.17
10518;BME280;5307;42.548;22.968;2023-09-12T06:35:55;94136.28;;;17.13;60.63
10518;BME280;5307;42.548;22.968;2023-09-12T06:38:22;94138.09;;;18.09;57.84
10518;BME280;5307;42.548;22.968;2023-09-12T06:40:49;94136.53;;;17.76;57.17
10518;BME280;5307;42.548;22.968;2023-09-12T06:43:16;94132.88;;;17.18;59.51
10518;BME280;5307;42.548;22.968;2023-09-12T06:45:43;94133.38;;;18.15;57.10
10518;BME280;5307;42.548;22.968;2023-09-12T06:48:10;94132.28;;;18.64;55.12
10518;BME280;5307;42.548;22.968;2023-09-12T06:50:38;94138.69;;;18.50;56.28
10518;BME280;5307;42.548;22.968;2023-09-12T06:53:05;94139.44;;;18.19;58.78
10518;BME280;5307;42.548;22.968;2023-09-12T06:55:32;94137.75;;;19.44;54.84
10518;BME280;5307;42.548;22.968;2023-09-12T06:57:59;94138.38;;;18.74;55.01
10518;BME280;5307;42.548;22.968;2023-09-12T07:00:26;94147.13;;;19.58;55.89
10518;BME280;5307;42.548;22.968;2023-09-12T07:02:53;94138.66;;;20.01;52.75
10518;BME280;5307;42.548;22.968;2023-09-12T07:05:20;94144.63;;;19.12;53.76
10518;BME280;5307;42.548;22.968;2023-09-12T07:07:48;94139.09;;;19.12;54.37
10518;BME280;5307;42.548;22.968;2023-09-12T07:10:15;94141.31;;;19.02;54.70
10518;BME280;5307;42.548;22.968;2023-09-12T07:12:42;94150.34;;;18.97;55.38
10518;BME280;5307;42.548;22.968;2023-09-12T07:15:09;94139.66;;;19.98;52.78
10518;BME280;5307;42.548;22.968;2023-09-12T07:17:36;94138.91;;;19.86;51.82
10518;BME280;5307;42.548;22.968;2023-09-12T07:20:03;94140.47;;;20.32;51.57
10518;BME280;5307;42.548;22.968;2023-09-12T07:22:33;94139.84;;;19.66;52.97
10518;BME280;5307;42.548;22.968;2023-09-12T07:25:01;94138.44;;;20.77;50.31
10518;BME280;5307;42.548;22.968;2023-09-12T07:27:28;94131.88;;;20.74;52.18
10518;BME280;5307;42.548;22.968;2023-09-12T07:29:55;94129.88;;;20.69;53.48
10518;BME280;5307;42.548;22.968;2023-09-12T07:32:22;94131.84;;;20.91;50.05
10518;BME280;5307;42.548;22.968;2023-09-12T07:34:50;94129.44;;;21.98;48.75
10518;BME280;5307;42.548;22.968;2023-09-12T07:37:16;94136.09;;;21.15;50.88
10518;BME280;5307;42.548;22.968;2023-09-12T07:39:43;94130.25;;;21.87;47.55
10518;BME280;5307;42.548;22.968;2023-09-12T07:42:11;94128.13;;;22.10;47.29
10518;BME280;5307;42.548;22.968;2023-09-12T07:44:38;94134.72;;;21.55;49.08
10518;BME280;5307;42.548;22.968;2023-09-12T07:47:06;94128.03;;;22.57;46.04
10518;BME280;5307;42.548;22.968;2023-09-12T07:49:33;94124.25;;;22.79;45.62
10518;BME280;5307;42.548;22.968;2023-09-12T07:52:00;94129.25;;;22.92;45.45
10518;BME280;5307;42.548;22.968;2023-09-12T07:54:27;94131.69;;;23.01;45.70
10518;BME280;5307;42.548;22.968;2023-09-12T07:56:54;94131.34;;;22.50;45.24
10518;BME280;5307;42.548;22.968;2023-09-12T07:59:22;94123.13;;;22.39;46.35
10518;BME280;5307;42.548;22.968;2023-09-12T08:01:49;94123.91;;;23.18;44.89
10518;BME280;5307;42.548;22.968;2023-09-12T08:04:18;94126.06;;;23.93;43.02
10518;BME280;5307;42.548;22.968;2023-09-12T08:06:45;94128.19;;;23.19;47.08
10518;BME280;5307;42.548;22.968;2023-09-12T08:09:12;94121.75;;;24.11;44.21
10518;BME280;5307;42.548;22.968;2023-09-12T08:11:39;94124.19;;;23.39;45.01
10518;BME280;5307;42.548;22.968;2023-09-12T08:14:05;94122.28;;;24.09;40.63
10518;BME280;5307;42.548;22.968;2023-09-12T08:16:33;94117.59;;;24.17;42.47
10518;BME280;5307;42.548;22.968;2023-09-12T08:19:00;94115.03;;;24.38;41.17
10518;BME280;5307;42.548;22.968;2023-09-12T08:21:27;94113.06;;;24.65;41.18
10518;BME280;5307;42.548;22.968;2023-09-12T08:23:54;94124.97;;;24.15;39.29
10518;BME280;5307;42.548;22.968;2023-09-12T08:26:21;94115.72;;;24.57;41.11
10518;BME280;5307;42.548;22.968;2023-09-12T08:28:48;94112.09;;;24.12;40.09
10518;BME280;5307;42.548;22.968;2023-09-12T08:31:15;94114.31;;;24.51;43.39
10518;BME280;5307;42.548;22.968;2023-09-12T08:33:52;94105.28;;;25.03;41.61
10518;BME280;5307;42.548;22.968;2023-09-12T08:36:18;94112.00;;;24.17;40.29
10518;BME280;5307;42.548;22.968;2023-09-12T08:38:45;94102.09;;;25.12;39.00
10518;BME280;5307;42.548;22.968;2023-09-12T08:41:12;94114.78;;;25.13;40.36
10518;BME280;5307;42.548;22.968;2023-09-12T08:43:39;94103.03;;;25.81;41.20
10518;BME280;5307;42.548;22.968;2023-09-12T08:46:06;94106.81;;;25.70;38.38
10518;BME280;5307;42.548;22.968;2023-09-12T08:48:33;94103.53;;;25.93;39.15
10518;BME280;5307;42.548;22.968;2023-09-12T08:51:04;94096.91;;;26.03;39.26
10518;BME280;5307;42.548;22.968;2023-09-12T08:53:31;94094.31;;;25.71;39.41
10518;BME280;5307;42.548;22.968;2023-09-12T08:55:58;94092.16;;;26.12;38.95
10518;BME280;5307;42.548;22.968;2023-09-12T08:58:29;94098.09;;;25.48;38.06
10518;BME280;5307;42.548;22.968;2023-09-12T09:00:56;94093.34;;;25.82;38.02
10518;BME280;5307;42.548;22.968;2023-09-12T09:03:24;94089.94;;;25.50;38.78
10518;BME280;5307;42.548;22.968;2023-09-12T09:05:52;94088.59;;;25.90;39.99
10518;BME280;5307;42.548;22.968;2023-09-12T09:08:22;94080.22;;;26.11;39.84
10518;BME280;5307;42.548;22.968;2023-09-12T09:10:56;94086.78;;;26.14;36.56
10518;BME280;5307;42.548;22.968;2023-09-12T09:13:24;94081.03;;;26.53;37.55
10518;BME280;5307;42.548;22.968;2023-09-12T09:16:09;94075.50;;;26.06;36.70
10518;BME280;5307;42.548;22.968;2023-09-12T09:18:49;94087.13;;;25.63;36.40
10518;BME280;5307;42.548;22.968;2023-09-12T09:21:17;94084.31;;;25.76;36.87
10518;BME280;5307;42.548;22.968;2023-09-12T09:23:47;94073.38;;;25.99;37.86
10518;BME280;5307;42.548;22.968;2023-09-12T09:26:14;94084.81;;;25.88;36.99
10518;BME280;5307;42.548;22.968;2023-09-12T09:28:41;94073.59;;;25.14;36.26
10518;BME280;5307;42.548;22.968;2023-09-12T09:31:10;94072.44;;;25.83;36.64
10518;BME280;5307;42.548;22.968;2023-09-12T09:33:38;94079.47;;;26.11;35.47
10518;BME280;5307;42.548;22.968;2023-09-12T09:36:07;94071.41;;;27.11;35.10
10518;BME280;5307;42.548;22.968;2023-09-12T09:38:34;94075.97;;;27.30;37.04
10518;BME280;5307;42.548;22.968;2023-09-12T09:41:05;94074.94;;;27.40;36.12
10518;BME280;5307;42.548;22.968;2023-09-12T09:43:32;94065.66;;;26.96;34.87
10518;BME280;5307;42.548;22.968;2023-09-12T09:45:59;94064.53;;;26.71;34.54
10518;BME280;5307;42.548;22.968;2023-09-12T09:48:26;94066.69;;;27.35;34.20
10518;BME280;5307;42.548;22.968;2023-09-12T09:51:00;94054.47;;;28.20;38.07
10518;BME280;5307;42.548;22.968;2023-09-12T09:53:27;94055.50;;;27.86;33.66
10518;BME280;5307;42.548;22.968;2023-09-12T09:56:08;94054.38;;;26.88;35.19
10518;BME280;5307;42.548;22.968;2023-09-12T09:58:36;94049.56;;;27.17;35.98
10518;BME280;5307;42.548;22.968;2023-09-12T10:01:05;94048.34;;;27.34;35.66
10518;BME280;5307;42.548;22.968;2023-09-12T10:03:36;94045.09;;;28.02;36.13
10518;BME280;5307;42.548;22.968;2023-09-12T10:06:04;94046.31;;;27.78;34.07
10518;BME280;5307;42.548;22.968;2023-09-12T10:08:32;94054.56;;;27.84;35.73
10518;BME280;5307;42.548;22.968;2023-09-12T10:11:01;94051.72;;;27.32;35.92
10518;BME280;5307;42.548;22.968;2023-09-12T10:13:32;94042.16;;;27.71;34.24
10518;BME280;5307;42.548;22.968;2023-09-12T10:16:00;94034.22;;;28.06;34.31
10518;BME280;5307;42.548;22.968;2023-09-12T10:18:33;94029.00;;;27.59;35.11
10518;BME280;5307;42.548;22.968;2023-09-12T10:21:10;94033.97;;;27.81;32.77
10518;BME280;5307;42.548;22.968;2023-09-12T10:23:41;94030.47;;;26.87;32.91
10518;BME280;5307;42.548;22.968;2023-09-12T10:26:11;94019.25;;;28.11;32.35
10518;BME280;5307;42.548;22.968;2023-09-12T10:28:41;94017.63;;;26.92;30.61
10518;BME280;5307;42.548;22.968;2023-09-12T10:31:08;94013.69;;;27.24;31.95
10518;BME280;5307;42.548;22.968;2023-09-12T10:33:37;94014.41;;;27.16;31.91
10518;BME280;5307;42.548;22.968;2023-09-12T10:36:05;94027.66;;;27.08;33.23
10518;BME280;5307;42.548;22.968;2023-09-12T10:38:36;94020.09;;;27.68;30.50
10518;BME280;5307;42.548;22.968;2023-09-12T10:41:06;94016.38;;;27.37;30.16
10518;BME280;5307;42.548;22.968;2023-09-12T10:43:35;94010.66;;;28.17;30.38
10518;BME280;5307;42.548;22.968;2023-09-12T10:46:05;94012.50;;;28.06;29.36
10518;BME280;5307;42.548;22.968;2023-09-12T10:48:32;94000.09;;;27.87;29.60
10518;BME280;5307;42.548;22.968;2023-09-12T10:51:01;94005.19;;;27.96;29.61
10518;BME280;5307;42.548;22.968;2023-09-12T10:53:30;94005.72;;;27.35;28.73
10518;BME280;5307;42.548;22.968;2023-09-12T10:55:59;94005.22;;;28.03;29.61
10518;BME280;5307;42.548;22.968;2023-09-12T10:58:27;93998.84;;;28.10;27.17
10518;BME280;5307;42.548;22.968;2023-09-12T11:01:24;93998.81;;;27.88;27.99
10518;BME280;5307;42.548;22.968;2023-09-12T11:03:51;94001.75;;;27.67;28.69
10518;BME280;5307;42.548;22.968;2023-09-12T11:06:23;93989.88;;;28.04;28.76
10518;BME280;5307;42.548;22.968;2023-09-12T11:09:18;93991.50;;;27.77;29.56
10518;BME280;5307;42.548;22.968;2023-09-12T11:11:46;93995.06;;;27.93;28.77
10518;BME280;5307;42.548;22.968;2023-09-12T11:14:14;93992.72;;;28.27;29.52
10518;BME280;5307;42.548;22.968;2023-09-12T11:16:43;93986.50;;;28.06;29.97
10518;BME280;5307;42.548;22.968;2023-09-12T11:19:42;93991.16;;;27.96;28.59
10518;BME280;5307;42.548;22.968;2023-09-12T11:22:22;93989.84;;;27.89;28.74
10518;BME280;5307;42.548;22.968;2023-09-12T11:24:49;93987.63;;;28.03;29.12
10518;BME280;5307;42.548;22.968;2023-09-12T11:27:15;93979.41;;;28.28;28.30
10518;BME280;5307;42.548;22.968;2023-09-12T11:29:42;93977.09;;;27.88;27.29
10518;BME280;5307;42.548;22.968;2023-09-12T11:32:25;93979.13;;;27.29;27.64
10518;BME280;5307;42.548;22.968;2023-09-12T11:34:52;93977.63;;;27.71;30.21
10518;BME280;5307;42.548;22.968;2023-09-12T11:37:23;93968.28;;;27.84;28.20
10518;BME280;5307;42.548;22.968;2023-09-12T11:39:50;93973.50;;;27.72;28.21
10518;BME280;5307;42.548;22.968;2023-09-12T11:42:18;93965.06;;;27.65;26.88
10518;BME280;5307;42.548;22.968;2023-09-12T11:44:44;93972.75;;;27.28;25.68
10518;BME280;5307;42.548;22.968;2023-09-12T11:47:13;93962.41;;;27.59;26.56
10518;BME280;5307;42.548;22.968;2023-09-12T11:49:40;93964.44;;;27.51;27.72
10518;BME280;5307;42.548;22.968;2023-09-12T11:52:09;93952.66;;;27.52;27.69
10518;BME280;5307;42.548;22.968;2023-09-12T11:54:36;93960.78;;;27.20;27.19
10518;BME280;5307;42.548;22.968;2023-09-12T11:57:03;93954.00;;;27.08;25.58
10518;BME280;5307;42.548;22.968;2023-09-12T11:59:30;93960.72;;;27.12;25.61
10518;BME280;5307;42.548;22.968;2023-09-12T12:01:57;93959.78;;;27.10;25.34
10518;BME280;5307;42.548;22.968;2023-09-12T12:04:26;93958.75;;;26.92;25.38
10518;BME280;5307;42.548;22.968;2023-09-12T12:06:52;93957.63;;;26.95;26.04
10518;BME280;5307;42.548;22.968;2023-09-12T12:09:19;93954.69;;;27.01;26.18
10518;BME280;5307;42.548;22.968;2023-09-12T12:11:46;93944.53;;;27.26;25.73
10518;BME280;5307;42.548;22.968;2023-09-12T12:14:14;93952.13;;;27.10;24.42
10518;BME280;5307;42.548;22.968;2023-09-12T12:16:42;93950.59;;;27.02;23.57
10518;BME280;5307;42.548;22.968;2023-09-12T12:19:09;93935.88;;;27.09;25.02
10518;BME280;5307;42.548;22.968;2023-09-12T12:21:38;93941.56;;;26.96;23.45
10518;BME280;5307;42.548;22.968;2023-09-12T12:24:07;93933.16;;;26.96;24.49
10518;BME280;5307;42.548;22.968;2023-09-12T12:26:34;93930.75;;;27.00;25.56
10518;BME280;5307;42.548;22.968;2023-09-12T12:29:01;93932.41;;;26.95;23.53
10518;BME280;5307;42.548;22.968;2023-09-12T12:31:29;93933.72;;;26.94;23.25
10518;BME280;5307;42.548;22.968;2023-09-12T12:33:56;93927.66;;;26.82;23.71
10518;BME280;5307;42.548;22.968;2023-09-12T12:36:25;93930.91;;;26.94;24.06
10518;BME280;5307;42.548;22.968;2023-09-12T12:38:53;93929.59;;;26.95;24.53
10518;BME280;5307;42.548;22.968;2023-09-12T12:41:24;93923.28;;;27.02;25.81
10518;BME280;5307;42.548;22.968;2023-09-12T12:43:52;93915.41;;;26.93;24.11
10518;BME280;5307;42.548;22.968;2023-09-12T12:46:20;93917.03;;;27.17;27.61
10518;BME280;5307;42.548;22.968;2023-09-12T12:48:48;93912.94;;;27.26;26.54
10518;BME280;5307;42.548;22.968;2023-09-12T12:51:16;93912.94;;;27.26;24.21
10518;BME280;5307;42.548;22.968;2023-09-12T12:53:46;93912.88;;;27.10;23.43
10518;BME280;5307;42.548;22.968;2023-09-12T12:56:15;93915.84;;;27.05;23.41
10518;BME280;5307;42.548;22.968;2023-09-12T12:58:51;93911.94;;;27.15;27.08
10518;BME280;5307;42.548;22.968;2023-09-12T13:01:18;93905.25;;;27.18;27.16
10518;BME280;5307;42.548;22.968;2023-09-12T13:03:48;93904.69;;;27.28;27.66
10518;BME280;5307;42.548;22.968;2023-09-12T13:06:16;93910.06;;;27.03;25.03
10518;BME280;5307;42.548;22.968;2023-09-12T13:08:44;93906.03;;;26.90;26.08
10518;BME280;5307;42.548;22.968;2023-09-12T13:11:12;93906.75;;;27.19;25.72
10518;BME280;5307;42.548;22.968;2023-09-12T13:13:40;93901.84;;;27.12;26.36
10518;BME280;5307;42.548;22.968;2023-09-12T13:16:09;93906.94;;;26.85;24.79